createdAt,value
2018-04-07T00:00:30.880Z,7.53
2018-04-07T00:02:56.994Z,7.00
2018-04-07T00:05:23.141Z,10.50
2018-04-07T00:07:49.988Z,12.03
2018-04-07T00:10:16.116Z,9.40
2018-04-07T00:12:42.261Z,7.67
2018-04-07T00:15:08.407Z,5.50
2018-04-07T00:17:35.282Z,8.07
2018-04-07T00:20:01.439Z,6.17
2018-04-07T00:22:27.597Z,5.73
2018-04-07T00:24:53.801Z,9.73
2018-04-07T00:27:19.956Z,7.73
2018-04-07T00:29:46.155Z,4.87
2018-04-07T00:32:13.052Z,8.93
2018-04-07T00:34:39.159Z,8.07
2018-04-07T00:37:05.997Z,7.53
2018-04-07T00:39:32.130Z,8.47
2018-04-07T00:41:58.246Z,7.07
2018-04-07T00:44:25.125Z,6.77
2018-04-07T00:46:51.240Z,8.67
2018-04-07T00:49:17.374Z,6.27
2018-04-07T00:51:43.479Z,8.13
2018-04-07T00:54:10.495Z,5.00
2018-04-07T00:56:36.587Z,7.43
2018-04-07T00:59:02.666Z,8.83
2018-04-07T01:01:28.760Z,7.13
2018-04-07T01:03:54.837Z,6.83
2018-04-07T01:06:24.246Z,7.40
2018-04-07T01:08:50.328Z,7.63
2018-04-07T01:11:17.166Z,9.57
2018-04-07T01:13:43.295Z,9.10
2018-04-07T01:16:09.380Z,6.67
2018-04-07T01:18:35.490Z,5.00
2018-04-07T01:21:01.565Z,15.40
2018-04-07T01:23:27.673Z,8.67
2018-04-07T01:25:54.592Z,6.23
2018-04-07T01:28:20.756Z,11.17
2018-04-07T01:30:47.618Z,6.30
2018-04-07T01:33:13.708Z,8.00
2018-04-07T01:35:39.806Z,12.33
2018-04-07T01:38:06.646Z,10.30
2018-04-07T01:40:33.503Z,5.97
2018-04-07T01:43:00.345Z,7.10
2018-04-07T01:45:26.446Z,6.03
2018-04-07T01:47:52.559Z,8.83
2018-04-07T01:50:19.384Z,7.00
2018-04-07T01:52:45.466Z,14.70
2018-04-07T01:55:11.579Z,7.47
2018-04-07T01:57:38.486Z,6.67
2018-04-07T02:00:04.611Z,6.30
2018-04-07T02:02:30.694Z,8.13
2018-04-07T02:04:56.804Z,6.00
2018-04-07T02:07:22.874Z,6.20
2018-04-07T02:09:48.976Z,5.40
2018-04-07T02:12:15.098Z,8.50
2018-04-07T02:14:41.220Z,7.17
2018-04-07T02:17:07.356Z,7.43
2018-04-07T02:19:33.449Z,10.70
2018-04-07T02:21:59.576Z,11.77
2018-04-07T02:24:25.718Z,12.00
2018-04-07T02:26:51.834Z,11.13
2018-04-07T02:29:17.963Z,11.10
2018-04-07T02:31:44.072Z,9.90
2018-04-07T02:34:10.178Z,11.37
2018-04-07T02:36:36.282Z,11.50
2018-04-07T02:39:02.399Z,7.73
2018-04-07T02:41:29.256Z,14.77
2018-04-07T02:43:55.381Z,7.30
2018-04-07T02:46:22.203Z,7.07
2018-04-07T02:48:48.351Z,13.23
2018-04-07T02:51:14.464Z,9.03
2018-04-07T02:53:40.527Z,7.40
2018-04-07T02:56:06.663Z,12.10
2018-04-07T02:58:32.773Z,9.80
2018-04-07T03:00:58.876Z,6.77
2018-04-07T03:03:24.978Z,12.27
2018-04-07T03:05:51.101Z,10.30
2018-04-07T03:08:17.158Z,7.70
2018-04-07T03:10:44.142Z,9.97
2018-04-07T03:13:10.246Z,9.73
2018-04-07T03:15:36.332Z,9.53
2018-04-07T03:18:02.444Z,12.83
2018-04-07T03:20:29.290Z,10.43
2018-04-07T03:22:55.409Z,15.13
2018-04-07T03:25:21.488Z,20.40
2018-04-07T03:27:48.331Z,11.87
2018-04-07T03:30:14.420Z,9.20
2018-04-07T03:32:40.491Z,10.70
2018-04-07T03:35:06.585Z,9.13
2018-04-07T03:37:32.676Z,9.80
2018-04-07T03:39:58.791Z,10.37
2018-04-07T03:42:24.914Z,5.93
2018-04-07T03:44:51.361Z,8.50
2018-04-07T03:47:17.493Z,8.30
2018-04-07T03:49:43.628Z,8.80
2018-04-07T03:52:09.733Z,8.07
2018-04-07T03:54:35.811Z,8.40
2018-04-07T03:57:01.938Z,8.67
2018-04-07T03:59:28.040Z,11.10
2018-04-07T04:01:54.882Z,8.33
2018-04-07T04:04:20.983Z,9.90
2018-04-07T04:06:47.084Z,7.50
2018-04-07T04:09:13.932Z,10.03
2018-04-07T04:11:40.015Z,8.43
2018-04-07T04:14:06.140Z,11.67
2018-04-07T04:16:32.257Z,9.17
2018-04-07T04:18:59.105Z,8.50
2018-04-07T04:21:25.939Z,11.40
2018-04-07T04:23:52.022Z,18.77
2018-04-07T04:26:18.151Z,9.03
2018-04-07T04:28:44.278Z,18.00
2018-04-07T04:31:10.375Z,12.47
2018-04-07T04:33:36.446Z,9.13
2018-04-07T04:36:03.294Z,8.23
2018-04-07T04:38:30.123Z,9.40
2018-04-07T04:40:56.236Z,11.00
2018-04-07T04:43:22.322Z,9.03
2018-04-07T04:45:49.173Z,9.20
2018-04-07T04:48:15.258Z,11.80
2018-04-07T04:50:41.358Z,9.00
2018-04-07T04:53:08.211Z,11.13
2018-04-07T04:55:34.293Z,12.30
2018-04-07T04:58:00.426Z,9.80
2018-04-07T05:00:26.531Z,12.53
2018-04-07T05:02:53.367Z,11.97
2018-04-07T05:05:19.496Z,12.17
2018-04-07T05:07:45.585Z,14.10
2018-04-07T05:10:11.691Z,10.67
2018-04-07T05:12:37.806Z,13.07
2018-04-07T05:15:03.943Z,11.00
2018-04-07T05:17:30.035Z,11.13
2018-04-07T05:19:56.172Z,13.93
2018-04-07T05:22:22.263Z,12.87
2018-04-07T05:24:48.342Z,10.23
2018-04-07T05:27:15.206Z,10.93
2018-04-07T05:29:42.074Z,11.30
2018-04-07T05:32:08.415Z,11.20
2018-04-07T05:34:34.572Z,13.27
2018-04-07T05:37:00.735Z,12.97
2018-04-07T05:39:26.831Z,10.20
2018-04-07T05:41:53.028Z,18.40
2018-04-07T05:44:19.110Z,13.90
2018-04-07T05:46:45.222Z,12.40
2018-04-07T05:49:12.114Z,13.17
2018-04-07T05:51:38.246Z,13.90
2018-04-07T05:54:04.329Z,11.90
2018-04-07T05:56:30.440Z,11.60
2018-04-07T05:58:56.539Z,10.00
2018-04-07T06:01:22.649Z,17.63
2018-04-07T06:03:48.763Z,8.97
2018-04-07T06:06:14.908Z,13.30
2018-04-07T06:08:41.027Z,12.00
2018-04-07T06:11:07.579Z,11.03
2018-04-07T06:13:33.715Z,15.53
2018-04-07T06:15:59.833Z,11.77
2018-04-07T06:18:25.967Z,14.63
2018-04-07T06:20:52.082Z,13.80
2018-04-07T06:23:18.971Z,10.40
2018-04-07T06:25:45.196Z,13.67
2018-04-07T06:28:11.354Z,14.33
2018-04-07T06:30:37.492Z,17.50
2018-04-07T06:33:03.630Z,11.77
2018-04-07T06:35:29.728Z,12.77
2018-04-07T06:37:56.575Z,16.70
2018-04-07T06:40:22.658Z,13.07
2018-04-07T06:42:48.764Z,14.10
2018-04-07T06:45:15.639Z,13.70
2018-04-07T06:47:41.766Z,14.17
2018-04-07T06:50:08.611Z,16.10
2018-04-07T06:52:35.478Z,12.47
2018-04-07T06:55:02.393Z,16.10
2018-04-07T06:57:28.447Z,13.60
2018-04-07T06:59:54.551Z,16.20
2018-04-07T07:02:20.639Z,11.10
2018-04-07T07:04:47.080Z,15.43
2018-04-07T07:07:13.926Z,12.83
2018-04-07T07:09:40.047Z,12.40
2018-04-07T07:12:06.136Z,16.87
2018-04-07T07:14:32.972Z,10.83
2018-04-07T07:16:59.095Z,16.43
2018-04-07T07:19:26.071Z,19.73
2018-04-07T07:21:52.334Z,12.20
2018-04-07T07:24:19.256Z,11.60
2018-04-07T07:26:45.370Z,13.13
2018-04-07T07:29:11.580Z,20.33
2018-04-07T07:31:37.753Z,11.33
2018-04-07T07:34:03.878Z,15.30
2018-04-07T07:36:31.081Z,16.70
2018-04-07T07:38:57.245Z,15.17
2018-04-07T07:41:30.515Z,20.40
2018-04-07T07:43:58.899Z,16.70
2018-04-07T07:46:27.694Z,14.33
2018-04-07T07:49:15.315Z,11.77
2018-04-07T07:51:41.721Z,16.27
2018-04-07T07:54:08.085Z,18.27
2018-04-07T07:56:34.194Z,16.00
2018-04-07T07:59:01.051Z,15.00
2018-04-07T08:01:27.215Z,13.13
2018-04-07T08:03:53.332Z,17.27
2018-04-07T08:06:20.162Z,16.23
2018-04-07T08:08:46.289Z,13.43
2018-04-07T08:11:12.411Z,14.50
2018-04-07T08:13:38.595Z,15.70
2018-04-07T08:16:04.740Z,24.23
2018-04-07T08:18:31.596Z,15.93
2018-04-07T08:20:57.700Z,10.93
2018-04-07T08:23:23.791Z,17.27
2018-04-07T08:25:50.053Z,19.40
2018-04-07T08:28:17.419Z,22.90
2018-04-07T08:30:49.342Z,16.53
2018-04-07T08:33:16.985Z,20.70
2018-04-07T08:35:43.123Z,23.70
2018-04-07T08:38:09.271Z,17.83
2018-04-07T08:40:36.434Z,15.60
2018-04-07T08:43:02.745Z,22.53
2018-04-07T08:45:28.966Z,15.10
2018-04-07T08:47:55.567Z,15.87
2018-04-07T08:50:21.939Z,15.80
2018-04-07T08:52:50.594Z,17.93
2018-04-07T08:58:07.830Z,16.07
2018-04-07T09:00:37.749Z,14.53
2018-04-07T09:03:03.943Z,13.10
2018-04-07T09:05:31.294Z,17.90
2018-04-07T09:07:58.344Z,13.90
2018-04-07T09:10:36.692Z,15.33
2018-04-07T09:13:07.425Z,19.30
2018-04-07T09:15:38.001Z,16.70
2018-04-07T09:18:07.215Z,18.47
2018-04-07T09:20:37.640Z,19.00
2018-04-07T09:23:07.851Z,23.33
2018-04-07T09:25:34.156Z,18.00
2018-04-07T09:28:00.772Z,19.20
2018-04-07T09:30:26.944Z,17.67
2018-04-07T09:32:54.667Z,15.03
2018-04-07T09:35:21.096Z,17.67
2018-04-07T09:37:47.338Z,20.40
2018-04-07T09:40:13.483Z,19.33
2018-04-07T09:42:39.659Z,24.23
2018-04-07T09:45:07.043Z,12.70
2018-04-07T09:47:38.639Z,19.13
2018-04-07T09:50:07.740Z,14.23
2018-04-07T09:52:33.864Z,14.83
2018-04-07T09:55:00.936Z,18.30
2018-04-07T09:57:38.084Z,22.23
2018-04-07T10:00:07.525Z,16.33
2018-04-07T10:02:35.305Z,26.47
2018-04-07T10:05:03.001Z,19.60
2018-04-07T10:07:38.413Z,15.33
2018-04-07T10:10:08.128Z,23.60
2018-04-07T10:12:34.330Z,12.37
2018-04-07T10:15:07.542Z,21.00
2018-04-07T10:17:37.231Z,20.30
2018-04-07T10:20:07.702Z,17.30
2018-04-07T10:22:38.953Z,13.87
2018-04-07T10:25:05.209Z,15.50
2018-04-07T10:27:36.594Z,17.97
2018-04-07T10:30:07.903Z,16.90
2018-04-07T10:32:34.835Z,16.47
2018-04-07T10:35:21.066Z,27.80
2018-04-07T10:37:47.482Z,15.83
2018-04-07T10:40:13.688Z,16.43
2018-04-07T10:42:43.289Z,20.37
2018-04-07T10:45:09.498Z,19.60
2018-04-07T10:47:45.511Z,23.40
2018-04-07T10:50:11.954Z,16.93
2018-04-07T10:52:52.211Z,19.87
2018-04-07T10:55:18.403Z,20.83
2018-04-07T10:57:51.743Z,17.53
2018-04-07T11:00:21.651Z,14.37
2018-04-07T11:02:47.832Z,15.77
2018-04-07T11:05:14.297Z,16.53
2018-04-07T11:07:40.448Z,23.80
2018-04-07T11:10:06.584Z,21.03
2018-04-07T11:12:32.694Z,17.87
2018-04-07T11:14:58.995Z,14.60
2018-04-07T11:17:25.988Z,17.63
2018-04-07T11:19:52.896Z,12.90
2018-04-07T11:22:19.099Z,19.50
2018-04-07T11:24:52.753Z,17.43
2018-04-07T11:27:22.194Z,19.00
2018-04-07T11:29:49.341Z,18.50
2018-04-07T11:32:20.894Z,16.10
2018-04-07T11:34:51.266Z,26.17
2018-04-07T11:37:22.431Z,16.10
2018-04-07T11:39:48.598Z,21.77
2018-04-07T11:42:15.220Z,14.30
2018-04-07T11:47:28.596Z,14.00
2018-04-07T11:49:55.717Z,16.80
2018-04-07T11:52:22.022Z,13.80
2018-04-07T11:54:48.279Z,12.90
2018-04-07T11:57:16.128Z,17.40
2018-04-07T11:59:42.389Z,17.50
2018-04-07T12:02:08.592Z,15.43
2018-04-07T12:04:35.143Z,16.13
2018-04-07T12:07:03.323Z,16.93
2018-04-07T12:09:30.354Z,17.23
2018-04-07T12:11:56.830Z,16.70
2018-04-07T12:14:23.045Z,36.00
2018-04-07T12:16:49.287Z,18.40
2018-04-07T12:19:15.482Z,14.43
2018-04-07T12:21:41.653Z,14.50
2018-04-07T12:24:10.158Z,13.33
2018-04-07T12:26:37.080Z,16.37
2018-04-07T12:29:03.322Z,17.63
2018-04-07T12:31:30.057Z,12.40
2018-04-07T12:33:56.473Z,19.30
2018-04-07T12:36:22.576Z,18.07
2018-04-07T12:38:48.800Z,15.47
2018-04-07T12:41:15.023Z,15.67
2018-04-07T12:43:42.540Z,27.43
2018-04-07T12:46:08.986Z,19.00
2018-04-07T12:48:36.413Z,12.53
2018-04-07T12:51:03.867Z,16.87
2018-04-07T12:53:30.257Z,14.77
2018-04-07T12:55:56.391Z,15.17
2018-04-07T12:58:22.999Z,13.57
2018-04-07T13:00:49.867Z,18.40
2018-04-07T13:03:16.781Z,17.27
2018-04-07T13:05:42.901Z,15.33
2018-04-07T13:10:43.325Z,12.00
2018-04-07T13:13:10.343Z,12.67
2018-04-07T13:15:36.505Z,11.80
2018-04-07T13:18:02.772Z,9.57
2018-04-07T13:20:28.968Z,14.57
2018-04-07T13:22:55.106Z,17.70
2018-04-07T13:25:21.304Z,16.87
2018-04-07T13:27:47.469Z,17.43
2018-04-07T13:30:13.672Z,11.83
2018-04-07T13:32:39.924Z,13.63
2018-04-07T13:35:06.023Z,11.03
2018-04-07T13:37:32.233Z,14.23
2018-04-07T13:39:58.455Z,17.70
2018-04-07T13:42:24.616Z,12.30
2018-04-07T13:44:50.935Z,12.87
2018-04-07T13:47:17.300Z,12.83
2018-04-07T13:49:43.507Z,12.73
2018-04-07T13:52:10.434Z,21.17
2018-04-07T13:54:37.335Z,14.00
2018-04-07T13:57:03.524Z,11.03
2018-04-07T13:59:29.799Z,22.60
2018-04-07T14:01:56.138Z,11.00
2018-04-07T14:04:22.330Z,23.77
2018-04-07T14:06:48.517Z,11.40
2018-04-07T14:09:14.796Z,13.97
2018-04-07T14:11:41.144Z,11.33
2018-04-07T14:14:07.324Z,13.17
2018-04-07T14:16:33.538Z,12.07
2018-04-07T14:18:59.859Z,7.90
2018-04-07T14:21:26.981Z,15.13
2018-04-07T14:23:53.998Z,13.47
2018-04-07T14:26:20.283Z,15.17
2018-04-07T14:28:47.157Z,14.73
2018-04-07T14:31:13.243Z,10.90
2018-04-07T14:33:39.399Z,13.80
2018-04-07T14:36:05.506Z,11.67
2018-04-07T14:38:31.656Z,13.57
2018-04-07T14:40:57.816Z,15.73
2018-04-07T14:43:24.543Z,10.43
2018-04-07T14:45:51.078Z,26.90
2018-04-07T14:48:17.508Z,13.17
2018-04-07T14:50:47.581Z,22.07
2018-04-07T14:53:13.697Z,17.90
2018-04-07T14:55:39.812Z,19.60
2018-04-07T14:58:05.932Z,21.70
2018-04-07T15:00:32.074Z,22.13
2018-04-07T15:02:58.186Z,14.80
2018-04-07T15:05:24.375Z,11.47
2018-04-07T15:07:50.482Z,12.40
2018-04-07T15:10:16.611Z,12.20
2018-04-07T15:12:42.691Z,12.30
2018-04-07T15:15:08.829Z,12.20
2018-04-07T15:17:34.981Z,7.83
2018-04-07T15:20:01.855Z,5.60
2018-04-07T15:22:28.730Z,12.30
2018-04-07T15:24:54.960Z,14.93
2018-04-07T15:27:21.322Z,8.97
2018-04-07T15:29:48.234Z,13.13
2018-04-07T15:32:14.362Z,11.77
2018-04-07T15:34:40.539Z,7.90
2018-04-07T15:37:06.664Z,8.73
2018-04-07T15:39:32.799Z,10.50
2018-04-07T15:41:58.916Z,10.80
2018-04-07T15:44:25.046Z,21.83
2018-04-07T15:46:51.186Z,12.00
2018-04-07T15:49:17.294Z,8.77
2018-04-07T15:51:43.378Z,12.83
2018-04-07T15:54:09.486Z,5.90
2018-04-07T15:56:35.614Z,12.90
2018-04-07T15:59:01.711Z,6.90
2018-04-07T16:01:27.866Z,9.47
2018-04-07T16:03:53.971Z,14.63
2018-04-07T16:06:20.241Z,17.10
2018-04-07T16:08:46.443Z,11.00
2018-04-07T16:11:12.546Z,18.30
2018-04-07T16:13:39.415Z,11.80
2018-04-07T16:16:06.329Z,10.97
2018-04-07T16:18:32.471Z,16.47
2018-04-07T16:20:58.638Z,10.47
2018-04-07T16:23:25.599Z,12.87
2018-04-07T16:25:52.441Z,10.23
2018-04-07T16:28:19.308Z,11.53
2018-04-07T16:30:45.461Z,7.47
2018-04-07T16:33:11.604Z,13.40
2018-04-07T16:35:37.719Z,10.90
2018-04-07T16:38:03.870Z,8.13
2018-04-07T16:40:30.716Z,9.77
2018-04-07T16:42:57.596Z,3.90
2018-04-07T16:45:24.282Z,11.27
2018-04-07T16:47:50.456Z,7.53
2018-04-07T16:50:16.582Z,10.47
2018-04-07T16:52:42.703Z,7.13
2018-04-07T16:55:08.796Z,11.17
2018-04-07T16:57:34.935Z,14.03
2018-04-07T17:00:01.123Z,6.30
2018-04-07T17:02:27.239Z,4.50
2018-04-07T17:04:54.063Z,8.03
2018-04-07T17:07:20.207Z,9.40
2018-04-07T17:09:46.351Z,11.20
2018-04-07T17:12:12.484Z,10.50
2018-04-07T17:14:38.554Z,10.37
2018-04-07T17:17:04.696Z,8.00
2018-04-07T17:19:31.154Z,7.07
2018-04-07T17:21:57.258Z,7.83
2018-04-07T17:24:24.125Z,7.20
2018-04-07T17:26:50.254Z,14.37
2018-04-07T17:29:16.378Z,8.20
2018-04-07T17:31:42.529Z,12.93
2018-04-07T17:34:08.655Z,10.90
2018-04-07T17:36:34.783Z,18.13
2018-04-07T17:39:00.870Z,15.63
2018-04-07T17:41:27.063Z,18.87
2018-04-07T17:43:53.922Z,15.50
2018-04-07T17:46:20.035Z,32.50
2018-04-07T17:48:46.122Z,20.37
2018-04-07T17:51:12.291Z,19.97
2018-04-07T17:53:38.469Z,15.17
2018-04-07T17:56:04.597Z,15.97
2018-04-07T17:58:31.506Z,14.63
2018-04-07T18:00:58.315Z,13.07
2018-04-07T18:03:25.178Z,12.47
2018-04-07T18:05:51.294Z,10.67
2018-04-07T18:08:17.413Z,14.47
2018-04-07T18:10:43.503Z,18.33
2018-04-07T18:13:09.749Z,9.70
2018-04-07T18:15:36.960Z,11.00
2018-04-07T18:18:03.210Z,9.60
2018-04-07T18:20:29.315Z,14.00
2018-04-07T18:22:55.426Z,8.10
2018-04-07T18:25:21.545Z,14.77
2018-04-07T18:27:47.936Z,8.53
2018-04-07T18:30:14.050Z,16.37
2018-04-07T18:32:40.183Z,11.27
2018-04-07T18:35:06.279Z,17.27
2018-04-07T18:37:32.416Z,31.77
2018-04-07T18:39:58.555Z,16.20
2018-04-07T18:42:24.773Z,7.23
2018-04-07T18:44:50.886Z,9.53
2018-04-07T18:47:17.033Z,8.17
2018-04-07T18:49:43.258Z,11.03
2018-04-07T18:52:09.350Z,9.70
2018-04-07T18:54:35.522Z,12.10
2018-04-07T18:57:01.659Z,24.90
2018-04-07T18:59:27.812Z,18.53
2018-04-07T19:01:53.960Z,12.13
2018-04-07T19:04:20.086Z,13.87
2018-04-07T19:06:46.227Z,13.73
2018-04-07T19:09:12.338Z,15.07
2018-04-07T19:11:38.529Z,10.00
2018-04-07T19:14:04.628Z,14.57
2018-04-07T19:16:30.732Z,10.50
2018-04-07T19:18:56.846Z,11.57
2018-04-07T19:21:22.954Z,21.50
2018-04-07T19:23:49.060Z,22.50
2018-04-07T19:26:15.452Z,18.33
2018-04-07T19:28:41.615Z,19.60
2018-04-07T19:31:07.727Z,29.60
2018-04-07T19:33:33.859Z,29.20
2018-04-07T19:36:00.008Z,18.97
2018-04-07T19:38:26.139Z,17.80
2018-04-07T19:40:52.238Z,28.97
2018-04-07T19:43:20.782Z,24.80
2018-04-07T19:45:46.902Z,27.97
2018-04-07T19:48:13.012Z,24.60
2018-04-07T19:50:39.913Z,29.20
2018-04-07T19:53:06.004Z,36.80
2018-04-07T19:55:32.090Z,29.40
2018-04-07T19:57:58.217Z,27.80
2018-04-07T20:00:24.306Z,29.00
2018-04-07T20:02:50.394Z,26.70
2018-04-07T20:05:16.490Z,30.67
2018-04-07T20:07:42.635Z,25.10
2018-04-07T20:10:08.731Z,33.30
2018-04-07T20:12:34.856Z,29.53
2018-04-07T20:15:01.000Z,23.00
2018-04-07T20:17:27.198Z,22.00
2018-04-07T20:19:53.639Z,22.33
2018-04-07T20:22:19.822Z,30.00
2018-04-07T20:24:45.951Z,20.50
2018-04-07T20:27:12.293Z,25.23
2018-04-07T20:29:38.641Z,21.03
2018-04-07T20:32:04.748Z,32.27
2018-04-07T20:34:31.218Z,25.43
2018-04-07T20:36:57.306Z,34.13
2018-04-07T20:39:23.387Z,28.57
2018-04-07T20:41:50.280Z,34.13
2018-04-07T20:44:28.535Z,27.20
2018-04-07T20:46:54.651Z,26.70
2018-04-07T20:49:20.790Z,55.03
2018-04-07T20:51:46.959Z,48.60
2018-04-07T20:54:13.401Z,54.37
2018-04-07T20:56:39.818Z,62.20
2018-04-07T20:59:05.970Z,65.77
2018-04-07T21:01:32.088Z,53.77
2018-04-07T21:03:58.239Z,38.27
2018-04-07T21:06:24.342Z,33.13
2018-04-07T21:08:50.444Z,34.73
2018-04-07T21:11:16.561Z,32.40
2018-04-07T21:13:42.779Z,36.43
2018-04-07T21:16:08.894Z,39.63
2018-04-07T21:18:35.027Z,37.50
2018-04-07T21:21:01.867Z,51.03
2018-04-07T21:23:27.955Z,41.77
2018-04-07T21:25:54.083Z,42.00
2018-04-07T21:28:20.175Z,48.47
2018-04-07T21:30:47.339Z,46.47
2018-04-07T21:33:13.451Z,51.63
2018-04-07T21:35:39.564Z,52.23
2018-04-07T21:38:05.743Z,66.37
2018-04-07T21:40:31.837Z,40.63
2018-04-07T21:42:57.951Z,48.67
2018-04-07T21:45:24.798Z,38.37
2018-04-07T21:47:50.919Z,51.07
2018-04-07T21:50:17.011Z,38.50
2018-04-07T21:52:43.140Z,48.77
2018-04-07T21:55:09.274Z,35.10
2018-04-07T21:57:35.407Z,32.10
2018-04-07T22:00:01.531Z,38.00
2018-04-07T22:02:27.619Z,51.00
2018-04-07T22:04:53.779Z,37.23
2018-04-07T22:07:19.864Z,43.10
2018-04-07T22:09:45.968Z,28.87
2018-04-07T22:12:12.079Z,51.23
2018-04-07T22:14:38.198Z,25.97
2018-04-07T22:17:04.346Z,30.33
2018-04-07T22:19:31.242Z,32.90
2018-04-07T22:21:57.367Z,31.60
2018-04-07T22:24:23.487Z,38.13
2018-04-07T22:26:49.595Z,30.30
2018-04-07T22:29:15.698Z,29.87
2018-04-07T22:31:41.828Z,29.87
2018-04-07T22:34:07.921Z,35.63
2018-04-07T22:36:34.030Z,44.00
2018-04-07T22:39:00.195Z,34.27
2018-04-07T22:41:26.375Z,25.10
2018-04-07T22:43:52.458Z,20.37
2018-04-07T22:46:18.586Z,28.43
2018-04-07T22:48:45.434Z,25.93
2018-04-07T22:51:11.544Z,24.13
2018-04-07T22:53:37.635Z,24.23
2018-04-07T22:56:03.788Z,32.77
2018-04-07T22:58:29.888Z,29.70
2018-04-07T23:00:56.738Z,28.17
2018-04-07T23:03:22.902Z,26.10
2018-04-07T23:05:50.167Z,33.40
2018-04-07T23:08:16.769Z,28.70
2018-04-07T23:10:42.927Z,27.73
2018-04-07T23:13:09.083Z,22.73
2018-04-07T23:15:35.947Z,27.00
2018-04-07T23:18:02.824Z,35.27
2018-04-07T23:20:28.931Z,29.27
2018-04-07T23:22:55.775Z,20.87
2018-04-07T23:25:21.925Z,25.97
2018-04-07T23:27:48.786Z,28.07
2018-04-07T23:30:15.648Z,26.20
2018-04-07T23:32:41.803Z,24.83
2018-04-07T23:35:07.912Z,27.73
2018-04-07T23:37:34.794Z,21.93
2018-04-07T23:40:00.982Z,24.20
2018-04-07T23:42:27.171Z,31.57
2018-04-07T23:44:53.313Z,20.60
2018-04-07T23:47:19.447Z,17.20
2018-04-07T23:49:45.556Z,24.57
2018-04-07T23:52:11.831Z,30.43
2018-04-07T23:54:37.974Z,22.10
2018-04-07T23:57:04.299Z,25.40
2018-04-07T23:59:30.419Z,22.10
